Time;durP1;ratioP1;P1;durP2;ratioP2;P2;SDS_P1;SDS_P2;PMS_P1;PMS_P2;Temp;Humidity;BMP_temperature;BMP_pressure;BME280_temperature;BME280_humidity;BME280_pressure;Samples;Min_cycle;Max_cycle;Signal;HPM_P1;HPM_P2
2022/11/09 00:01:14;;;;;;;52.40;41.15;;;;;;;;;;5075242;28;20074;-74
2022/11/09 00:03:39;;;;;;;51.35;40.65;;;;;;;;;;5069261;28;20028;-77
2022/11/09 00:06:05;;;;;;;52.95;42.47;;;;;;;;;;5073534;28;20040;-74
2022/11/09 00:08:30;;;;;;;42.33;34.25;;;;;;;;;;5081498;28;20032;-75
2022/11/09 00:11:01;;;;;;;144.95;88.00;;;;;;;;;;5080197;28;20687;-75
2022/11/09 00:13:26;;;;;;;69.50;48.72;;;;;;;;;;5073320;28;20032;-75
2022/11/09 00:15:51;;;;;;;59.65;47.22;;;;;;;;;;5071753;28;20055;-75
2022/11/09 00:18:17;;;;;;;54.13;43.88;;;;;;;;;;5071280;28;20048;-75
2022/11/09 00:20:42;;;;;;;71.32;55.92;;;;;;;;;;5078934;28;20020;-75
2022/11/09 00:23:08;;;;;;;89.80;68.13;;;;;;;;;;5080629;28;20442;-75
2022/11/09 00:25:33;;;;;;;51.33;40.53;;;;;;;;;;5082893;28;20019;-75
2022/11/09 00:27:58;;;;;;;55.47;41.15;;;;;;;;;;5084224;28;20023;-77
2022/11/09 00:30:23;;;;;;;55.88;43.60;;;;;;;;;;5058163;28;20039;-76
2022/11/09 00:32:49;;;;;;;106.30;78.05;;;;;;;;;;5074918;28;20028;-75
2022/11/09 00:35:14;;;;;;;154.95;113.05;;;;;;;;;;5085277;28;20097;-77
2022/11/09 00:37:40;;;;;;;72.78;56.85;;;;;;;;;;5086098;28;20020;-77
2022/11/09 00:40:05;;;;;;;47.75;38.72;;;;;;;;;;5085582;28;20025;-75
2022/11/09 00:42:31;;;;;;;49.47;41.15;;;;;;;;;;5074816;28;20028;-74
2022/11/09 00:44:56;;;;;;;61.13;48.88;;;;;;;;;;5085233;28;20370;-74
2022/11/09 00:47:21;;;;;;;91.63;72.18;;;;;;;;;;5082531;28;20398;-74
2022/11/09 00:49:47;;;;;;;105.63;80.88;;;;;;;;;;5079442;28;20399;-74
2022/11/09 00:52:12;;;;;;;102.00;77.25;;;;;;;;;;5075080;28;20516;-74
2022/11/09 00:54:37;;;;;;;123.53;97.55;;;;;;;;;;5084067;28;20111;-75
2022/11/09 00:57:03;;;;;;;79.15;62.88;;;;;;;;;;5085410;28;20031;-74
2022/11/09 00:59:28;;;;;;;72.78;57.22;;;;;;;;;;5078311;28;20453;-74
2022/11/09 01:01:53;;;;;;;63.97;48.83;;;;;;;;;;5080689;28;20468;-76
2022/11/09 01:04:19;;;;;;;74.72;60.17;;;;;;;;;;5083382;28;20039;-74
2022/11/09 01:06:44;;;;;;;75.53;58.97;;;;;;;;;;5053186;28;20046;-76
2022/11/09 01:09:09;;;;;;;63.88;51.10;;;;;;;;;;5082580;28;20063;-74
2022/11/09 01:11:35;;;;;;;44.42;36.90;;;;;;;;;;5072750;28;20111;-74
2022/11/09 01:14:01;;;;;;;42.80;34.58;;;;;;;;;;5084368;28;20028;-75
2022/11/09 01:16:26;;;;;;;46.33;37.92;;;;;;;;;;5085755;28;20028;-75
2022/11/09 01:18:53;;;;;;;61.88;49.05;;;;;;;;;;5081999;28;20179;-74
2022/11/09 01:21:18;;;;;;;59.38;46.45;;;;;;;;;;5083805;28;20040;-74
2022/11/09 01:23:44;;;;;;;91.32;74.65;;;;;;;;;;5082750;28;20085;-75
2022/11/09 01:26:10;;;;;;;60.88;50.13;;;;;;;;;;5083978;28;20024;-75
2022/11/09 01:28:36;;;;;;;65.25;46.13;;;;;;;;;;5083822;28;20111;-74
2022/11/09 01:31:03;;;;;;;82.53;57.17;;;;;;;;;;5074754;28;20108;-75
2022/11/09 01:33:29;;;;;;;83.93;67.55;;;;;;;;;;5080595;28;20028;-74
2022/11/09 01:36:00;;;;;;;68.43;53.13;;;;;;;;;;5082254;28;20355;-74
2022/11/09 01:38:25;;;;;;;72.43;51.15;;;;;;;;;;5083859;28;20024;-75
2022/11/09 01:40:50;;;;;;;61.00;41.70;;;;;;;;;;5083819;28;20031;-75
2022/11/09 01:43:17;;;;;;;65.25;43.63;;;;;;;;;;5072520;28;20032;-74
2022/11/09 01:45:44;;;;;;;73.93;45.15;;;;;;;;;;5076547;28;20032;-78
2022/11/09 01:48:12;;;;;;;52.78;39.17;;;;;;;;;;5074395;28;20036;-74
2022/11/09 01:50:43;;;;;;;55.38;40.28;;;;;;;;;;5083737;28;20032;-74
2022/11/09 01:53:11;;;;;;;52.58;39.88;;;;;;;;;;5083247;28;20071;-75
2022/11/09 01:55:37;;;;;;;67.22;44.08;;;;;;;;;;5083942;28;20012;-74
2022/11/09 01:58:07;;;;;;;85.88;58.17;;;;;;;;;;5083340;28;20032;-74
2022/11/09 02:00:34;;;;;;;85.60;54.00;;;;;;;;;;5083393;28;20471;-74
2022/11/09 02:03:11;;;;;;;85.40;58.20;;;;;;;;;;5074200;28;20031;-76
2022/11/09 02:05:39;;;;;;;95.93;62.10;;;;;;;;;;5081434;28;20033;-75
2022/11/09 02:08:05;;;;;;;95.60;63.25;;;;;;;;;;5083077;28;20034;-75
2022/11/09 02:10:36;;;;;;;83.90;58.40;;;;;;;;;;5083422;28;20024;-74
2022/11/09 02:13:02;;;;;;;80.07;55.03;;;;;;;;;;5082777;28;20024;-75
2022/11/09 02:15:28;;;;;;;78.53;53.83;;;;;;;;;;5083169;28;20042;-75
2022/11/09 02:17:54;;;;;;;85.00;58.85;;;;;;;;;;5035533;28;1339090;-75
2022/11/09 02:20:19;;;;;;;102.30;77.07;;;;;;;;;;5071898;28;20537;-76
2022/11/09 02:22:44;;;;;;;107.70;79.93;;;;;;;;;;5084027;28;20020;-76
2022/11/09 02:25:11;;;;;;;58.38;43.33;;;;;;;;;;5083144;28;20076;-74
2022/11/09 02:27:37;;;;;;;79.68;57.58;;;;;;;;;;5083722;28;20052;-75
2022/11/09 02:30:03;;;;;;;75.68;47.97;;;;;;;;;;5079222;28;20082;-81
2022/11/09 02:32:29;;;;;;;77.70;53.15;;;;;;;;;;5078370;28;20549;-79
2022/11/09 02:34:54;;;;;;;64.80;50.35;;;;;;;;;;5084013;28;20063;-77
2022/11/09 02:37:26;;;;;;;39.85;31.85;;;;;;;;;;5083833;28;20442;-76
2022/11/09 02:39:52;;;;;;;39.15;30.75;;;;;;;;;;5083125;28;20032;-76
2022/11/09 02:42:17;;;;;;;41.88;35.17;;;;;;;;;;5083538;28;20085;-76
2022/11/09 02:44:46;;;;;;;35.45;28.50;;;;;;;;;;5082806;28;20023;-76
2022/11/09 02:47:12;;;;;;;43.30;34.58;;;;;;;;;;5081874;28;20028;-75
2022/11/09 02:49:37;;;;;;;46.28;32.63;;;;;;;;;;5080743;28;20096;-75
2022/11/09 02:52:02;;;;;;;42.38;29.63;;;;;;;;;;5068685;28;20081;-75
2022/11/09 02:54:28;;;;;;;40.72;28.23;;;;;;;;;;5081539;28;20024;-75
2022/11/09 02:56:53;;;;;;;40.92;30.63;;;;;;;;;;5082095;28;20027;-76
2022/11/09 02:59:19;;;;;;;46.38;30.80;;;;;;;;;;5077935;28;20035;-76
2022/11/09 03:01:44;;;;;;;46.72;28.90;;;;;;;;;;5076616;28;20447;-76
2022/11/09 03:04:09;;;;;;;37.22;25.70;;;;;;;;;;5081831;28;20134;-77
2022/11/09 03:06:35;;;;;;;37.97;26.98;;;;;;;;;;5081934;28;20020;-77
2022/11/09 03:09:01;;;;;;;40.15;27.48;;;;;;;;;;5083205;28;20040;-76
2022/11/09 03:11:26;;;;;;;48.90;33.92;;;;;;;;;;5083062;28;20036;-76
2022/11/09 03:13:51;;;;;;;48.25;33.60;;;;;;;;;;5083408;28;20027;-76
2022/11/09 03:16:17;;;;;;;54.90;39.53;;;;;;;;;;5075588;28;20431;-76
2022/11/09 03:18:42;;;;;;;46.25;35.58;;;;;;;;;;5075946;28;20040;-78
2022/11/09 03:21:07;;;;;;;45.63;35.80;;;;;;;;;;5083004;28;20076;-77
2022/11/09 03:23:33;;;;;;;40.53;33.92;;;;;;;;;;5082971;28;20024;-76
2022/11/09 03:25:58;;;;;;;33.13;26.75;;;;;;;;;;5082735;28;20103;-76
2022/11/09 03:28:23;;;;;;;36.50;30.50;;;;;;;;;;5082372;28;20066;-77
2022/11/09 03:30:49;;;;;;;35.22;29.75;;;;;;;;;;5082117;28;20739;-76
2022/11/09 03:33:14;;;;;;;34.05;26.20;;;;;;;;;;5082575;28;20122;-75
2022/11/09 03:35:40;;;;;;;37.03;28.38;;;;;;;;;;5082349;28;20133;-76
2022/11/09 03:38:05;;;;;;;42.20;28.85;;;;;;;;;;5082533;28;20024;-75
2022/11/09 03:40:30;;;;;;;39.45;28.60;;;;;;;;;;5081828;28;20051;-75
2022/11/09 03:42:56;;;;;;;42.08;28.92;;;;;;;;;;5079062;28;20028;-76
2022/11/09 03:45:22;;;;;;;45.25;31.10;;;;;;;;;;5071569;28;20032;-78
2022/11/09 03:47:47;;;;;;;39.60;29.38;;;;;;;;;;5079974;28;20064;-78
2022/11/09 03:50:14;;;;;;;36.42;27.40;;;;;;;;;;5082986;28;20062;-77
2022/11/09 03:52:39;;;;;;;30.55;24.80;;;;;;;;;;5082522;28;20476;-76
2022/11/09 03:55:05;;;;;;;35.08;26.42;;;;;;;;;;5082536;28;20028;-75
2022/11/09 03:57:30;;;;;;;35.65;26.75;;;;;;;;;;5081726;28;20350;-77
2022/11/09 03:59:56;;;;;;;37.58;27.45;;;;;;;;;;5079720;28;20024;-75
2022/11/09 04:02:21;;;;;;;35.58;25.77;;;;;;;;;;5068348;28;20016;-77
2022/11/09 04:04:46;;;;;;;34.70;25.75;;;;;;;;;;5080237;28;20032;-74
2022/11/09 04:07:12;;;;;;;28.52;22.92;;;;;;;;;;5081759;28;20063;-75
2022/11/09 04:09:37;;;;;;;35.45;25.25;;;;;;;;;;5082445;28;20054;-75
2022/11/09 04:12:03;;;;;;;48.78;30.27;;;;;;;;;;5082411;28;20444;-75
2022/11/09 04:14:28;;;;;;;89.97;53.95;;;;;;;;;;5082075;28;20024;-75
2022/11/09 04:16:54;;;;;;;221.10;137.73;;;;;;;;;;5081983;28;20024;-75
2022/11/09 04:19:19;;;;;;;209.50;134.73;;;;;;;;;;5082336;28;20028;-75
2022/11/09 04:21:44;;;;;;;161.10;107.10;;;;;;;;;;5069566;28;20031;-75
2022/11/09 04:24:10;;;;;;;123.05;84.05;;;;;;;;;;5082378;28;20028;-75
2022/11/09 04:26:35;;;;;;;101.75;72.20;;;;;;;;;;5082316;28;20034;-78
2022/11/09 04:29:00;;;;;;;97.93;69.88;;;;;;;;;;5081058;28;20059;-75
2022/11/09 04:31:26;;;;;;;81.63;55.50;;;;;;;;;;5082679;28;20107;-74
2022/11/09 04:33:51;;;;;;;66.75;42.95;;;;;;;;;;5081942;28;20070;-77
2022/11/09 04:36:16;;;;;;;58.17;39.53;;;;;;;;;;5076738;28;20069;-74
2022/11/09 04:38:42;;;;;;;55.25;37.80;;;;;;;;;;5075180;28;20032;-75
2022/11/09 04:41:07;;;;;;;68.70;41.67;;;;;;;;;;5081630;28;20428;-74
2022/11/09 04:43:33;;;;;;;61.92;42.05;;;;;;;;;;5080461;28;20024;-76
2022/11/09 04:46:01;;;;;;;60.72;41.03;;;;;;;;;;5080684;28;20436;-74
2022/11/09 04:48:27;;;;;;;55.42;36.78;;;;;;;;;;5071473;28;20106;-74
2022/11/09 04:50:57;;;;;;;58.97;40.15;;;;;;;;;;5079122;28;20119;-79
2022/11/09 04:53:23;;;;;;;67.30;47.63;;;;;;;;;;5082207;28;21024;-75
2022/11/09 04:55:49;;;;;;;104.70;66.95;;;;;;;;;;5073205;28;20057;-74
2022/11/09 04:58:15;;;;;;;81.70;55.47;;;;;;;;;;5078609;28;20036;-74
2022/11/09 05:00:40;;;;;;;130.95;75.40;;;;;;;;;;5070620;28;20020;-77
2022/11/09 05:03:06;;;;;;;132.98;74.53;;;;;;;;;;5079644;28;20063;-74
2022/11/09 05:05:32;;;;;;;124.80;67.03;;;;;;;;;;5069687;28;20027;-75
2022/11/09 05:07:57;;;;;;;133.30;63.67;;;;;;;;;;5064658;28;20032;-74
2022/11/09 05:10:23;;;;;;;166.75;81.93;;;;;;;;;;5063683;28;20040;-74
2022/11/09 05:12:48;;;;;;;161.68;81.80;;;;;;;;;;5070422;28;20039;-74
2022/11/09 05:15:13;;;;;;;165.35;86.95;;;;;;;;;;5069365;28;20016;-76
2022/11/09 05:17:39;;;;;;;115.25;76.90;;;;;;;;;;5070062;28;20067;-81
2022/11/09 05:20:04;;;;;;;86.15;67.88;;;;;;;;;;5075619;28;20020;-78
2022/11/09 05:25:14;;;;;;;68.30;48.38;;;;;;;;;;5084451;28;20493;-77
2022/11/09 05:27:39;;;;;;;92.97;59.20;;;;;;;;;;5076799;28;20025;-81
2022/11/09 05:30:05;;;;;;;98.25;66.00;;;;;;;;;;5082636;28;20032;-79
2022/11/09 05:32:30;;;;;;;90.60;68.95;;;;;;;;;;5085154;28;20028;-77
2022/11/09 05:34:55;;;;;;;65.18;45.47;;;;;;;;;;5078280;28;20024;-76
2022/11/09 05:37:21;;;;;;;61.25;48.72;;;;;;;;;;5073336;28;20032;-78
2022/11/09 05:39:47;;;;;;;74.15;50.60;;;;;;;;;;5074790;28;20032;-78
2022/11/09 05:42:12;;;;;;;81.38;49.60;;;;;;;;;;5076114;28;20032;-78
2022/11/09 05:44:37;;;;;;;71.32;49.28;;;;;;;;;;5085548;28;20026;-77
2022/11/09 05:47:03;;;;;;;150.10;105.45;;;;;;;;;;5061413;28;20039;-78
2022/11/09 05:49:28;;;;;;;201.35;140.00;;;;;;;;;;5073900;28;20802;-81
2022/11/09 05:51:53;;;;;;;101.40;72.72;;;;;;;;;;5075403;28;20040;-79
2022/11/09 05:54:19;;;;;;;82.70;59.33;;;;;;;;;;5080361;28;20016;-79
2022/11/09 05:56:44;;;;;;;84.15;61.58;;;;;;;;;;5074255;28;20017;-78
2022/11/09 05:59:09;;;;;;;86.65;63.63;;;;;;;;;;5058084;28;20039;-80
2022/11/09 06:01:35;;;;;;;152.25;117.05;;;;;;;;;;5080886;28;20104;-75
2022/11/09 06:04:00;;;;;;;82.72;62.03;;;;;;;;;;5083452;28;20069;-78
2022/11/09 06:06:25;;;;;;;63.08;46.40;;;;;;;;;;5084523;28;20020;-79
2022/11/09 06:08:51;;;;;;;67.05;48.85;;;;;;;;;;5082341;28;20040;-78
2022/11/09 06:11:16;;;;;;;156.15;117.28;;;;;;;;;;5083820;28;20086;-79
2022/11/09 06:13:42;;;;;;;92.82;75.43;;;;;;;;;;5083891;28;20053;-79
2022/11/09 06:16:08;;;;;;;61.28;48.15;;;;;;;;;;5064943;28;20052;-81
2022/11/09 06:18:34;;;;;;;160.75;142.15;;;;;;;;;;5084454;28;20143;-80
2022/11/09 06:21:01;;;;;;;114.35;97.43;;;;;;;;;;5081869;28;20028;-79
2022/11/09 06:23:26;;;;;;;100.18;75.55;;;;;;;;;;5082243;28;20781;-78
2022/11/09 06:25:52;;;;;;;83.28;62.10;;;;;;;;;;5083406;28;20032;-77
2022/11/09 06:28:17;;;;;;;89.15;59.30;;;;;;;;;;5070706;28;20051;-78
2022/11/09 06:30:43;;;;;;;71.97;49.92;;;;;;;;;;5071443;28;20121;-80
2022/11/09 06:33:08;;;;;;;88.15;54.50;;;;;;;;;;5071406;28;20033;-83
2022/11/09 06:35:34;;;;;;;98.43;60.65;;;;;;;;;;5074194;28;20069;-79
2022/11/09 06:37:59;;;;;;;135.18;86.25;;;;;;;;;;5060530;28;20027;-75
2022/11/09 06:40:24;;;;;;;101.82;70.93;;;;;;;;;;5082479;28;20043;-75
2022/11/09 06:42:50;;;;;;;87.05;58.30;;;;;;;;;;5082253;28;20059;-78
2022/11/09 06:45:15;;;;;;;112.93;78.35;;;;;;;;;;5083816;28;20028;-81
2022/11/09 06:47:40;;;;;;;210.65;134.30;;;;;;;;;;5082959;28;20335;-76
2022/11/09 06:50:06;;;;;;;164.13;107.85;;;;;;;;;;5082928;28;20351;-78
2022/11/09 06:52:31;;;;;;;88.07;62.33;;;;;;;;;;5083746;28;20028;-78
2022/11/09 06:54:57;;;;;;;95.55;66.25;;;;;;;;;;5082866;28;20028;-78
2022/11/09 06:57:22;;;;;;;71.90;51.58;;;;;;;;;;5082601;28;20028;-77
2022/11/09 06:59:47;;;;;;;63.63;47.72;;;;;;;;;;5070568;28;20029;-78
2022/11/09 07:02:14;;;;;;;56.30;41.15;;;;;;;;;;5081977;28;20480;-78
2022/11/09 07:04:40;;;;;;;50.53;37.95;;;;;;;;;;5082883;28;20031;-77
2022/11/09 07:07:06;;;;;;;51.60;40.50;;;;;;;;;;5076584;28;20588;-76
2022/11/09 07:09:31;;;;;;;54.63;38.88;;;;;;;;;;5066975;28;20070;-76
2022/11/09 07:11:57;;;;;;;42.53;33.10;;;;;;;;;;5068912;28;20059;-78
2022/11/09 07:14:22;;;;;;;44.55;37.05;;;;;;;;;;5068799;28;20031;-76
2022/11/09 07:16:48;;;;;;;195.27;166.80;;;;;;;;;;5079464;28;20032;-76
2022/11/09 07:19:13;;;;;;;98.20;76.88;;;;;;;;;;5068110;28;20064;-74
2022/11/09 07:21:38;;;;;;;57.75;44.83;;;;;;;;;;5064718;28;20450;-73
2022/11/09 07:24:04;;;;;;;50.67;43.70;;;;;;;;;;5069048;28;20031;-73
2022/11/09 07:26:29;;;;;;;55.28;48.35;;;;;;;;;;5073472;28;20039;-75
2022/11/09 07:28:54;;;;;;;58.60;46.10;;;;;;;;;;5080162;28;20102;-74
2022/11/09 07:31:20;;;;;;;55.03;44.55;;;;;;;;;;5074502;28;20028;-73
2022/11/09 07:33:45;;;;;;;75.88;67.65;;;;;;;;;;5070789;28;20075;-74
2022/11/09 07:36:10;;;;;;;58.33;50.50;;;;;;;;;;5070387;28;20102;-74
2022/11/09 07:38:36;;;;;;;56.50;50.28;;;;;;;;;;5067167;28;20027;-74
2022/11/09 07:41:01;;;;;;;41.95;35.20;;;;;;;;;;5066180;28;20028;-74
2022/11/09 07:43:27;;;;;;;34.95;29.55;;;;;;;;;;5070469;28;20043;-73
2022/11/09 07:45:52;;;;;;;37.05;31.13;;;;;;;;;;5076328;28;20416;-73
2022/11/09 07:48:18;;;;;;;37.88;32.22;;;;;;;;;;5067406;28;20424;-74
2022/11/09 07:50:44;;;;;;;37.30;31.33;;;;;;;;;;5066916;28;21039;-76
2022/11/09 07:53:10;;;;;;;35.35;30.23;;;;;;;;;;5067107;28;20032;-75
2022/11/09 07:55:35;;;;;;;34.95;29.95;;;;;;;;;;5068559;28;20020;-74
2022/11/09 07:58:02;;;;;;;37.08;31.25;;;;;;;;;;5070273;28;20092;-73
2022/11/09 08:00:29;;;;;;;36.85;32.08;;;;;;;;;;5079454;28;20427;-75
2022/11/09 08:02:54;;;;;;;37.60;33.58;;;;;;;;;;5079621;28;20036;-73
2022/11/09 08:05:20;;;;;;;39.83;35.45;;;;;;;;;;5079492;28;20059;-73
2022/11/09 08:07:45;;;;;;;33.67;29.27;;;;;;;;;;5077578;28;20050;-72
2022/11/09 08:10:11;;;;;;;38.65;34.30;;;;;;;;;;5080194;28;20028;-72
2022/11/09 08:12:36;;;;;;;60.33;48.75;;;;;;;;;;5073066;28;20020;-75
2022/11/09 08:15:02;;;;;;;74.63;61.55;;;;;;;;;;5066417;28;20435;-76
2022/11/09 08:17:27;;;;;;;108.90;96.82;;;;;;;;;;5065425;28;20471;-72
2022/11/09 08:19:53;;;;;;;88.28;77.93;;;;;;;;;;5066933;28;20063;-75
2022/11/09 08:22:18;;;;;;;77.50;65.03;;;;;;;;;;5067347;28;20062;-74
2022/11/09 08:24:44;;;;;;;73.93;62.47;;;;;;;;;;5067658;28;20024;-73
2022/11/09 08:27:09;;;;;;;63.00;55.22;;;;;;;;;;5067556;28;20477;-72
2022/11/09 08:29:34;;;;;;;56.25;47.25;;;;;;;;;;5066838;28;20031;-71
2022/11/09 08:32:00;;;;;;;70.15;56.85;;;;;;;;;;5066731;28;20081;-71
2022/11/09 08:34:25;;;;;;;61.97;53.13;;;;;;;;;;5067191;28;20359;-72
2022/11/09 08:36:50;;;;;;;64.72;54.03;;;;;;;;;;5068084;28;20028;-72
2022/11/09 08:39:16;;;;;;;53.63;47.42;;;;;;;;;;5067300;28;20123;-75
2022/11/09 08:41:41;;;;;;;53.80;46.58;;;;;;;;;;5067475;28;20020;-72
2022/11/09 08:44:07;;;;;;;43.28;38.65;;;;;;;;;;5067118;28;20036;-72
2022/11/09 08:46:32;;;;;;;42.45;35.67;;;;;;;;;;5068863;28;20024;-72
2022/11/09 08:48:57;;;;;;;55.47;49.60;;;;;;;;;;5071326;28;20028;-73
2022/11/09 08:51:23;;;;;;;46.80;40.13;;;;;;;;;;5071238;28;20028;-71
2022/11/09 08:53:48;;;;;;;37.58;32.38;;;;;;;;;;5071469;28;20054;-72
2022/11/09 08:56:17;;;;;;;34.35;30.55;;;;;;;;;;5071141;28;20028;-75
2022/11/09 08:58:43;;;;;;;35.77;31.30;;;;;;;;;;5071423;28;20028;-72
2022/11/09 09:01:08;;;;;;;31.30;26.60;;;;;;;;;;5071611;28;20020;-72
2022/11/09 09:03:34;;;;;;;107.35;85.93;;;;;;;;;;5071120;28;20428;-71
2022/11/09 09:06:03;;;;;;;75.30;60.08;;;;;;;;;;5071299;28;20039;-71
2022/11/09 09:08:28;;;;;;;57.65;47.55;;;;;;;;;;5069499;28;20034;-73
2022/11/09 09:10:54;;;;;;;79.13;63.65;;;;;;;;;;5072639;28;20036;-73
2022/11/09 09:13:21;;;;;;;50.97;40.80;;;;;;;;;;5071253;28;20031;-72
2022/11/09 09:15:47;;;;;;;83.90;71.03;;;;;;;;;;5070660;28;20043;-72
2022/11/09 09:18:12;;;;;;;39.42;34.22;;;;;;;;;;5070292;28;20469;-72
2022/11/09 09:20:37;;;;;;;29.70;26.60;;;;;;;;;;5071206;28;20024;-74
2022/11/09 09:23:03;;;;;;;22.40;20.13;;;;;;;;;;5069882;28;20028;-74
2022/11/09 09:25:28;;;;;;;50.85;45.60;;;;;;;;;;5071493;28;20028;-72
2022/11/09 09:27:54;;;;;;;36.97;33.10;;;;;;;;;;5070382;28;20035;-72
2022/11/09 09:30:19;;;;;;;21.20;19.13;;;;;;;;;;5052205;28;20077;-71
2022/11/09 09:32:44;;;;;;;28.75;25.75;;;;;;;;;;5070989;28;20436;-71
2022/11/09 09:35:10;;;;;;;20.13;16.35;;;;;;;;;;5071035;28;20070;-71
2022/11/09 09:37:36;;;;;;;18.02;15.90;;;;;;;;;;5071114;28;20432;-71
2022/11/09 09:40:01;;;;;;;18.23;16.35;;;;;;;;;;5070084;28;20028;-73
2022/11/09 09:42:36;;;;;;;27.90;23.92;;;;;;;;;;5071678;28;20351;-71
2022/11/09 09:45:09;;;;;;;20.88;18.88;;;;;;;;;;5070820;28;20020;-74
2022/11/09 09:47:35;;;;;;;15.70;14.20;;;;;;;;;;5051927;28;20038;-73
2022/11/09 09:50:02;;;;;;;20.92;18.63;;;;;;;;;;5070680;28;20481;-73
2022/11/09 09:52:35;;;;;;;14.80;13.30;;;;;;;;;;5069452;28;20028;-72
2022/11/09 09:55:07;;;;;;;71.97;52.30;;;;;;;;;;5070535;28;20020;-72
2022/11/09 09:57:33;;;;;;;60.33;46.08;;;;;;;;;;5069844;28;20370;-73
2022/11/09 10:00:00;;;;;;;27.92;24.88;;;;;;;;;;5069733;28;20024;-73
2022/11/09 10:02:30;;;;;;;82.30;62.83;;;;;;;;;;5069416;28;20031;-75
2022/11/09 10:04:57;;;;;;;31.70;24.45;;;;;;;;;;5069454;28;23344;-73
2022/11/09 10:07:31;;;;;;;36.67;30.65;;;;;;;;;;5068254;28;20043;-74
2022/11/09 10:10:06;;;;;;;18.88;16.42;;;;;;;;;;5068423;28;20570;-74
2022/11/09 10:13:04;;;;;;;33.15;27.55;;;;;;;;;;5069170;28;20040;-73
2022/11/09 10:15:38;;;;;;;36.78;32.13;;;;;;;;;;4988799;28;20030;-73
2022/11/09 10:18:21;;;;;;;43.05;33.30;;;;;;;;;;4988755;28;20068;-72
2022/11/09 10:20:54;;;;;;;30.42;27.10;;;;;;;;;;4979062;28;20153;-71
2022/11/09 10:23:38;;;;;;;26.73;23.92;;;;;;;;;;4989308;28;20030;-72
2022/11/09 10:26:08;;;;;;;30.55;25.88;;;;;;;;;;4989999;28;20030;-71
2022/11/09 10:28:36;;;;;;;26.55;23.67;;;;;;;;;;4989467;28;20057;-72
2022/11/09 10:31:02;;;;;;;38.67;34.53;;;;;;;;;;5001781;28;20145;-72
2022/11/09 10:33:28;;;;;;;27.92;23.73;;;;;;;;;;5002717;28;20033;-72
2022/11/09 10:36:20;;;;;;;31.20;28.00;;;;;;;;;;4993167;28;20048;-72
2022/11/09 10:38:48;;;;;;;20.58;18.50;;;;;;;;;;4989903;28;20053;-74
2022/11/09 10:41:28;;;;;;;18.75;16.83;;;;;;;;;;5001749;28;20052;-72
2022/11/09 10:43:54;;;;;;;26.30;21.48;;;;;;;;;;5003491;28;20597;-74
2022/11/09 10:46:20;;;;;;;27.92;24.83;;;;;;;;;;5000814;28;20125;-72
2022/11/09 10:48:46;;;;;;;30.73;27.42;;;;;;;;;;4989643;28;20104;-74
2022/11/09 10:51:30;;;;;;;27.35;24.40;;;;;;;;;;5010297;28;20112;-75
2022/11/09 10:54:17;;;;;;;26.88;24.05;;;;;;;;;;5034527;28;20032;-74
2022/11/09 10:56:44;;;;;;;25.38;22.55;;;;;;;;;;5042096;28;20039;-71
2022/11/09 10:59:28;;;;;;;33.83;30.30;;;;;;;;;;5040372;28;20035;-74
2022/11/09 11:01:54;;;;;;;40.38;33.60;;;;;;;;;;5042308;28;20020;-71
2022/11/09 11:04:22;;;;;;;28.83;25.83;;;;;;;;;;5040964;28;20118;-72
2022/11/09 11:06:47;;;;;;;21.63;19.52;;;;;;;;;;5041583;28;20029;-72
2022/11/09 11:09:14;;;;;;;27.83;25.02;;;;;;;;;;5040105;28;20086;-72
2022/11/09 11:11:39;;;;;;;21.75;19.50;;;;;;;;;;5042834;28;20028;-74
2022/11/09 11:14:23;;;;;;;32.03;28.55;;;;;;;;;;5041330;28;20028;-72
2022/11/09 11:16:51;;;;;;;25.17;22.58;;;;;;;;;;5039405;28;20064;-73
2022/11/09 11:19:25;;;;;;;20.88;18.80;;;;;;;;;;5080039;28;20443;-73
2022/11/09 11:22:09;;;;;;;18.10;16.15;;;;;;;;;;5079599;28;20057;-72
2022/11/09 11:24:42;;;;;;;19.30;17.30;;;;;;;;;;5081168;28;20102;-75
2022/11/09 11:27:17;;;;;;;37.78;33.78;;;;;;;;;;5082161;28;20027;-73
2022/11/09 11:29:49;;;;;;;27.67;24.98;;;;;;;;;;5080397;28;20031;-73
2022/11/09 11:32:15;;;;;;;17.80;16.10;;;;;;;;;;5080828;28;20024;-72
2022/11/09 11:34:41;;;;;;;20.75;18.75;;;;;;;;;;5080187;28;20455;-71
2022/11/09 11:37:25;;;;;;;18.70;16.80;;;;;;;;;;5082302;28;20039;-73
2022/11/09 11:39:53;;;;;;;20.27;18.35;;;;;;;;;;5078808;28;20078;-73
2022/11/09 11:42:19;;;;;;;21.60;19.45;;;;;;;;;;5081471;28;20120;-74
2022/11/09 11:44:44;;;;;;;18.20;16.50;;;;;;;;;;5079667;28;20161;-74
2022/11/09 11:47:28;;;;;;;19.08;17.27;;;;;;;;;;5081116;28;20035;-72
2022/11/09 11:50:10;;;;;;;23.45;20.75;;;;;;;;;;5080484;28;20048;-73
2022/11/09 11:52:39;;;;;;;62.17;51.55;;;;;;;;;;5079952;28;20085;-73
2022/11/09 11:55:13;;;;;;;78.60;57.30;;;;;;;;;;5081379;28;20024;-78
2022/11/09 11:57:39;;;;;;;80.60;58.72;;;;;;;;;;5079928;28;20449;-73
2022/11/09 12:00:12;;;;;;;47.30;38.72;;;;;;;;;;5079682;28;20051;-73
2022/11/09 12:02:40;;;;;;;32.50;28.55;;;;;;;;;;5080180;28;20024;-73
2022/11/09 12:05:17;;;;;;;25.95;23.33;;;;;;;;;;5082101;28;20355;-74
2022/11/09 12:07:55;;;;;;;24.23;21.63;;;;;;;;;;5081967;28;20028;-72
2022/11/09 12:10:27;;;;;;;19.20;17.38;;;;;;;;;;5080004;28;20031;-73
2022/11/09 12:12:58;;;;;;;22.38;20.17;;;;;;;;;;5081569;28;20059;-73
2022/11/09 12:15:24;;;;;;;24.85;22.45;;;;;;;;;;5081177;28;20153;-74
2022/11/09 12:18:08;;;;;;;20.45;18.38;;;;;;;;;;5081750;28;20966;-73
2022/11/09 12:20:38;;;;;;;25.10;22.73;;;;;;;;;;5083475;28;20412;-73
2022/11/09 12:23:24;;;;;;;19.25;17.35;;;;;;;;;;5086476;28;20055;-73
2022/11/09 12:26:01;;;;;;;19.02;17.23;;;;;;;;;;5085296;28;20031;-73
2022/11/09 12:28:37;;;;;;;20.05;18.15;;;;;;;;;;5086122;28;20028;-72
2022/11/09 12:31:05;;;;;;;22.10;19.77;;;;;;;;;;5086150;28;20351;-75
2022/11/09 12:33:33;;;;;;;25.55;23.02;;;;;;;;;;5085102;28;20027;-72
2022/11/09 12:36:04;;;;;;;20.95;18.85;;;;;;;;;;5082489;28;20036;-75
2022/11/09 12:38:35;;;;;;;22.90;20.70;;;;;;;;;;5086328;28;20463;-74
2022/11/09 12:41:13;;;;;;;20.45;18.48;;;;;;;;;;5083034;28;20028;-72
2022/11/09 12:43:45;;;;;;;23.23;20.92;;;;;;;;;;5085571;28;20115;-75
2022/11/09 12:46:12;;;;;;;23.80;21.52;;;;;;;;;;5085316;28;20028;-72
2022/11/09 12:48:38;;;;;;;19.23;17.42;;;;;;;;;;5084136;28;20023;-72
2022/11/09 12:51:04;;;;;;;21.92;19.40;;;;;;;;;;5085233;28;20032;-72
2022/11/09 12:53:32;;;;;;;18.90;17.10;;;;;;;;;;5084670;28;20097;-73
2022/11/09 12:55:57;;;;;;;22.40;20.20;;;;;;;;;;5084114;28;20405;-72
2022/11/09 12:58:28;;;;;;;22.90;20.55;;;;;;;;;;5085055;28;20020;-72
2022/11/09 13:01:00;;;;;;;20.83;18.85;;;;;;;;;;5085189;28;20073;-72
2022/11/09 13:03:27;;;;;;;21.98;19.77;;;;;;;;;;5083089;28;20063;-73
2022/11/09 13:06:11;;;;;;;24.33;18.42;;;;;;;;;;5084264;28;20027;-74
2022/11/09 13:08:37;;;;;;;19.83;17.92;;;;;;;;;;5082614;28;20510;-73
2022/11/09 13:11:21;;;;;;;19.98;18.08;;;;;;;;;;5083071;28;20135;-72
2022/11/09 13:13:46;;;;;;;19.58;17.63;;;;;;;;;;5084227;28;20107;-72
2022/11/09 13:16:32;;;;;;;23.33;21.23;;;;;;;;;;5081886;28;20115;-72
2022/11/09 13:18:57;;;;;;;18.60;16.77;;;;;;;;;;5084096;28;20109;-72
2022/11/09 13:21:23;;;;;;;17.58;15.90;;;;;;;;;;5084807;28;20028;-72
2022/11/09 13:23:52;;;;;;;26.77;24.13;;;;;;;;;;5084165;28;20032;-72
2022/11/09 13:26:40;;;;;;;25.35;22.67;;;;;;;;;;5085211;28;20020;-74
2022/11/09 13:29:25;;;;;;;22.88;20.67;;;;;;;;;;5073607;28;20043;-72
2022/11/09 13:32:02;;;;;;;21.88;19.73;;;;;;;;;;5082749;28;20038;-72
2022/11/09 13:34:40;;;;;;;22.25;20.13;;;;;;;;;;5081569;28;20039;-72
2022/11/09 13:37:35;;;;;;;22.63;20.52;;;;;;;;;;5083939;28;20668;-72
2022/11/09 13:40:01;;;;;;;21.02;18.92;;;;;;;;;;5024148;28;20049;-73
2022/11/09 13:42:33;;;;;;;20.70;18.65;;;;;;;;;;5027025;28;20025;-75
2022/11/09 13:45:17;;;;;;;20.40;18.33;;;;;;;;;;5019900;28;20065;-73
2022/11/09 13:47:49;;;;;;;19.35;17.45;;;;;;;;;;5025444;28;20055;-74
2022/11/09 13:50:19;;;;;;;18.70;17.00;;;;;;;;;;5022822;28;20577;-72
2022/11/09 13:52:47;;;;;;;18.70;16.90;;;;;;;;;;5025615;28;20044;-73
2022/11/09 13:55:20;;;;;;;22.88;19.17;;;;;;;;;;5021627;28;20436;-74
2022/11/09 13:57:46;;;;;;;25.55;22.60;;;;;;;;;;5021177;28;20554;-73
2022/11/09 14:00:18;;;;;;;20.45;18.45;;;;;;;;;;5024311;28;20060;-72
2022/11/09 14:02:51;;;;;;;19.50;17.50;;;;;;;;;;5027150;28;20049;-72
2022/11/09 14:05:30;;;;;;;18.05;16.25;;;;;;;;;;5023402;28;20437;-72
2022/11/09 14:07:57;;;;;;;20.13;18.02;;;;;;;;;;5029698;28;20021;-71
2022/11/09 14:10:43;;;;;;;19.27;17.27;;;;;;;;;;5025519;28;20045;-72
2022/11/09 14:13:20;;;;;;;19.23;17.30;;;;;;;;;;5025011;28;20041;-72
2022/11/09 14:15:46;;;;;;;20.75;18.58;;;;;;;;;;5039020;28;20040;-74
2022/11/09 14:18:14;;;;;;;21.08;18.02;;;;;;;;;;5082523;28;20497;-73
2022/11/09 14:20:41;;;;;;;19.42;17.42;;;;;;;;;;5084454;28;20028;-73
2022/11/09 14:23:15;;;;;;;20.13;17.00;;;;;;;;;;5071580;28;20346;-75